sensor_id;sensor_type;location;lat;lon;timestamp;P1;durP1;ratioP1;P2;durP2;ratioP2
70414;SDS011;57837;52.064;113.478;2023-05-16T00:00:02;23.75;;;9.32;;
70414;SDS011;57837;52.064;113.478;2023-05-16T00:03:09;15.80;;;8.32;;
70414;SDS011;57837;52.064;113.478;2023-05-16T00:06:14;12.77;;;8.02;;
70414;SDS011;57837;52.064;113.478;2023-05-16T00:09:19;11.45;;;6.43;;
70414;SDS011;57837;52.064;113.478;2023-05-16T00:12:23;13.77;;;7.93;;
70414;SDS011;57837;52.064;113.478;2023-05-16T00:15:27;12.65;;;6.65;;
70414;SDS011;57837;52.064;113.478;2023-05-16T00:18:31;11.27;;;6.35;;
70414;SDS011;57837;52.064;113.478;2023-05-16T00:21:35;18.65;;;9.75;;
70414;SDS011;57837;52.064;113.478;2023-05-16T00:24:39;14.90;;;8.13;;
70414;SDS011;57837;52.064;113.478;2023-05-16T00:27:43;14.33;;;6.97;;
70414;SDS011;57837;52.064;113.478;2023-05-16T00:30:49;10.43;;;5.80;;
70414;SDS011;57837;52.064;113.478;2023-05-16T00:33:53;13.63;;;5.93;;
70414;SDS011;57837;52.064;113.478;2023-05-16T00:36:58;12.60;;;4.93;;
70414;SDS011;57837;52.064;113.478;2023-05-16T00:40:02;11.53;;;4.67;;
70414;SDS011;57837;52.064;113.478;2023-05-16T00:43:06;13.50;;;5.00;;
70414;SDS011;57837;52.064;113.478;2023-05-16T00:46:11;10.57;;;4.70;;
70414;SDS011;57837;52.064;113.478;2023-05-16T00:49:14;11.55;;;4.63;;
70414;SDS011;57837;52.064;113.478;2023-05-16T00:52:18;6.80;;;3.70;;
70414;SDS011;57837;52.064;113.478;2023-05-16T00:55:22;11.87;;;4.07;;
70414;SDS011;57837;52.064;113.478;2023-05-16T00:58:27;7.60;;;3.60;;
70414;SDS011;57837;52.064;113.478;2023-05-16T01:01:34;16.30;;;4.90;;
70414;SDS011;57837;52.064;113.478;2023-05-16T01:05:03;10.93;;;3.70;;
70414;SDS011;57837;52.064;113.478;2023-05-16T01:08:10;7.57;;;3.40;;
70414;SDS011;57837;52.064;113.478;2023-05-16T01:21:26;9.25;;;2.50;;
70414;SDS011;57837;52.064;113.478;2023-05-16T01:24:55;8.40;;;3.13;;
70414;SDS011;57837;52.064;113.478;2023-05-16T01:28:22;10.40;;;2.63;;
70414;SDS011;57837;52.064;113.478;2023-05-16T01:31:27;12.40;;;3.03;;
70414;SDS011;57837;52.064;113.478;2023-05-16T01:34:30;79.53;;;7.75;;
70414;SDS011;57837;52.064;113.478;2023-05-16T01:37:38;15.13;;;3.40;;
70414;SDS011;57837;52.064;113.478;2023-05-16T01:44:06;11.03;;;3.20;;
70414;SDS011;57837;52.064;113.478;2023-05-16T01:47:15;83.53;;;8.57;;
70414;SDS011;57837;52.064;113.478;2023-05-16T01:50:21;38.55;;;3.97;;
70414;SDS011;57837;52.064;113.478;2023-05-16T01:53:28;72.07;;;8.43;;
70414;SDS011;57837;52.064;113.478;2023-05-16T01:56:41;15.25;;;5.03;;
70414;SDS011;57837;52.064;113.478;2023-05-16T01:59:53;88.33;;;9.80;;
70414;SDS011;57837;52.064;113.478;2023-05-16T02:02:58;24.75;;;5.88;;
70414;SDS011;57837;52.064;113.478;2023-05-16T02:06:01;21.55;;;5.07;;
70414;SDS011;57837;52.064;113.478;2023-05-16T02:09:04;16.42;;;4.57;;
70414;SDS011;57837;52.064;113.478;2023-05-16T02:12:07;19.67;;;5.32;;
70414;SDS011;57837;52.064;113.478;2023-05-16T02:15:11;26.60;;;5.73;;
70414;SDS011;57837;52.064;113.478;2023-05-16T02:18:15;14.27;;;4.13;;
70414;SDS011;57837;52.064;113.478;2023-05-16T02:21:20;18.50;;;4.45;;
70414;SDS011;57837;52.064;113.478;2023-05-16T02:24:24;11.32;;;3.17;;
70414;SDS011;57837;52.064;113.478;2023-05-16T02:27:29;15.65;;;3.42;;
70414;SDS011;57837;52.064;113.478;2023-05-16T02:30:32;12.40;;;3.40;;
70414;SDS011;57837;52.064;113.478;2023-05-16T02:33:35;10.90;;;3.00;;
70414;SDS011;57837;52.064;113.478;2023-05-16T02:36:39;19.98;;;3.33;;
70414;SDS011;57837;52.064;113.478;2023-05-16T02:39:43;14.60;;;6.50;;
70414;SDS011;57837;52.064;113.478;2023-05-16T02:42:47;11.60;;;3.05;;
70414;SDS011;57837;52.064;113.478;2023-05-16T02:45:50;8.37;;;2.87;;
70414;SDS011;57837;52.064;113.478;2023-05-16T02:48:55;8.55;;;2.35;;
70414;SDS011;57837;52.064;113.478;2023-05-16T02:51:59;11.23;;;2.63;;
70414;SDS011;57837;52.064;113.478;2023-05-16T02:55:03;9.95;;;2.97;;
70414;SDS011;57837;52.064;113.478;2023-05-16T02:58:24;9.43;;;2.78;;
70414;SDS011;57837;52.064;113.478;2023-05-16T03:01:28;8.00;;;2.40;;
70414;SDS011;57837;52.064;113.478;2023-05-16T03:04:32;11.02;;;2.15;;
70414;SDS011;57837;52.064;113.478;2023-05-16T03:07:37;7.28;;;1.98;;
70414;SDS011;57837;52.064;113.478;2023-05-16T03:10:40;6.93;;;1.98;;
70414;SDS011;57837;52.064;113.478;2023-05-16T03:13:44;6.05;;;2.17;;
70414;SDS011;57837;52.064;113.478;2023-05-16T03:16:48;6.67;;;2.00;;
70414;SDS011;57837;52.064;113.478;2023-05-16T03:19:52;5.93;;;1.90;;
70414;SDS011;57837;52.064;113.478;2023-05-16T03:22:56;4.53;;;1.90;;
70414;SDS011;57837;52.064;113.478;2023-05-16T03:25:59;5.75;;;1.85;;
70414;SDS011;57837;52.064;113.478;2023-05-16T03:29:03;7.05;;;1.73;;
70414;SDS011;57837;52.064;113.478;2023-05-16T03:32:07;4.67;;;1.53;;
70414;SDS011;57837;52.064;113.478;2023-05-16T03:35:12;5.18;;;1.40;;
70414;SDS011;57837;52.064;113.478;2023-05-16T03:38:15;5.55;;;1.38;;
70414;SDS011;57837;52.064;113.478;2023-05-16T03:41:18;5.30;;;1.30;;
70414;SDS011;57837;52.064;113.478;2023-05-16T03:44:22;5.05;;;1.63;;
70414;SDS011;57837;52.064;113.478;2023-05-16T03:47:26;3.33;;;1.20;;
70414;SDS011;57837;52.064;113.478;2023-05-16T03:50:57;3.25;;;1.50;;
70414;SDS011;57837;52.064;113.478;2023-05-16T03:54:01;5.75;;;1.50;;
70414;SDS011;57837;52.064;113.478;2023-05-16T03:57:05;6.47;;;1.30;;
70414;SDS011;57837;52.064;113.478;2023-05-16T04:00:08;5.15;;;1.42;;
70414;SDS011;57837;52.064;113.478;2023-05-16T04:03:16;4.47;;;1.10;;
70414;SDS011;57837;52.064;113.478;2023-05-16T04:06:19;3.42;;;1.33;;
70414;SDS011;57837;52.064;113.478;2023-05-16T04:09:23;3.83;;;1.45;;
70414;SDS011;57837;52.064;113.478;2023-05-16T04:12:27;10.32;;;1.10;;
70414;SDS011;57837;52.064;113.478;2023-05-16T04:15:30;3.55;;;1.10;;
70414;SDS011;57837;52.064;113.478;2023-05-16T04:18:34;1.77;;;0.93;;
70414;SDS011;57837;52.064;113.478;2023-05-16T04:21:37;1.83;;;1.00;;
70414;SDS011;57837;52.064;113.478;2023-05-16T04:24:41;3.25;;;1.15;;
70414;SDS011;57837;52.064;113.478;2023-05-16T04:27:45;1.80;;;0.80;;
70414;SDS011;57837;52.064;113.478;2023-05-16T04:30:48;3.72;;;0.75;;
70414;SDS011;57837;52.064;113.478;2023-05-16T04:33:51;2.50;;;1.13;;
70414;SDS011;57837;52.064;113.478;2023-05-16T04:36:55;2.75;;;0.85;;
70414;SDS011;57837;52.064;113.478;2023-05-16T04:39:58;3.90;;;0.95;;
70414;SDS011;57837;52.064;113.478;2023-05-16T04:43:01;5.28;;;0.80;;
70414;SDS011;57837;52.064;113.478;2023-05-16T04:46:05;2.55;;;0.80;;
70414;SDS011;57837;52.064;113.478;2023-05-16T04:49:11;4.40;;;1.00;;
70414;SDS011;57837;52.064;113.478;2023-05-16T04:52:16;8.25;;;0.90;;
70414;SDS011;57837;52.064;113.478;2023-05-16T04:55:20;8.80;;;0.90;;
70414;SDS011;57837;52.064;113.478;2023-05-16T04:58:23;12.48;;;1.30;;
70414;SDS011;57837;52.064;113.478;2023-05-16T05:01:26;2.65;;;0.90;;
70414;SDS011;57837;52.064;113.478;2023-05-16T05:04:29;3.43;;;1.83;;
70414;SDS011;57837;52.064;113.478;2023-05-16T05:07:33;5.47;;;1.20;;
70414;SDS011;57837;52.064;113.478;2023-05-16T05:10:37;5.25;;;0.80;;
70414;SDS011;57837;52.064;113.478;2023-05-16T05:13:41;2.40;;;0.90;;
70414;SDS011;57837;52.064;113.478;2023-05-16T05:16:44;1.52;;;0.60;;
70414;SDS011;57837;52.064;113.478;2023-05-16T05:19:48;2.30;;;0.70;;
70414;SDS011;57837;52.064;113.478;2023-05-16T05:22:51;6.97;;;1.02;;
70414;SDS011;57837;52.064;113.478;2023-05-16T05:25:54;6.57;;;1.23;;
70414;SDS011;57837;52.064;113.478;2023-05-16T05:28:57;5.60;;;0.95;;
70414;SDS011;57837;52.064;113.478;2023-05-16T05:32:07;4.03;;;1.30;;
70414;SDS011;57837;52.064;113.478;2023-05-16T05:35:10;3.23;;;0.70;;
70414;SDS011;57837;52.064;113.478;2023-05-16T05:38:14;3.67;;;1.00;;
70414;SDS011;57837;52.064;113.478;2023-05-16T05:41:18;15.38;;;1.45;;
70414;SDS011;57837;52.064;113.478;2023-05-16T05:44:22;4.55;;;0.80;;
70414;SDS011;57837;52.064;113.478;2023-05-16T05:47:24;4.25;;;0.80;;
70414;SDS011;57837;52.064;113.478;2023-05-16T05:50:28;1.40;;;0.60;;
70414;SDS011;57837;52.064;113.478;2023-05-16T05:53:31;6.00;;;1.05;;
70414;SDS011;57837;52.064;113.478;2023-05-16T05:56:35;3.08;;;0.85;;
70414;SDS011;57837;52.064;113.478;2023-05-16T05:59:39;2.72;;;0.90;;
70414;SDS011;57837;52.064;113.478;2023-05-16T06:02:42;6.38;;;1.52;;
70414;SDS011;57837;52.064;113.478;2023-05-16T06:05:45;14.63;;;1.50;;
70414;SDS011;57837;52.064;113.478;2023-05-16T06:08:50;4.35;;;0.90;;
70414;SDS011;57837;52.064;113.478;2023-05-16T06:11:53;2.15;;;1.00;;
70414;SDS011;57837;52.064;113.478;2023-05-16T06:14:57;3.75;;;0.82;;
70414;SDS011;57837;52.064;113.478;2023-05-16T06:18:01;3.40;;;1.10;;
70414;SDS011;57837;52.064;113.478;2023-05-16T06:21:05;6.30;;;1.00;;
70414;SDS011;57837;52.064;113.478;2023-05-16T06:24:09;4.57;;;1.17;;
70414;SDS011;57837;52.064;113.478;2023-05-16T06:27:14;4.80;;;0.95;;
70414;SDS011;57837;52.064;113.478;2023-05-16T06:30:17;6.05;;;1.13;;
70414;SDS011;57837;52.064;113.478;2023-05-16T06:33:21;6.32;;;1.25;;
70414;SDS011;57837;52.064;113.478;2023-05-16T06:36:25;9.20;;;1.20;;
70414;SDS011;57837;52.064;113.478;2023-05-16T06:39:29;4.95;;;1.25;;
70414;SDS011;57837;52.064;113.478;2023-05-16T06:42:33;3.95;;;1.00;;
70414;SDS011;57837;52.064;113.478;2023-05-16T06:45:37;5.10;;;1.00;;
70414;SDS011;57837;52.064;113.478;2023-05-16T06:48:40;3.75;;;0.93;;
70414;SDS011;57837;52.064;113.478;2023-05-16T06:51:44;4.37;;;0.80;;
70414;SDS011;57837;52.064;113.478;2023-05-16T06:54:48;4.25;;;1.48;;
70414;SDS011;57837;52.064;113.478;2023-05-16T06:57:52;2.78;;;1.20;;
70414;SDS011;57837;52.064;113.478;2023-05-16T07:00:56;4.95;;;1.17;;
70414;SDS011;57837;52.064;113.478;2023-05-16T07:04:00;2.50;;;1.25;;
70414;SDS011;57837;52.064;113.478;2023-05-16T07:07:04;6.17;;;1.67;;
70414;SDS011;57837;52.064;113.478;2023-05-16T07:10:10;4.63;;;1.60;;
70414;SDS011;57837;52.064;113.478;2023-05-16T07:13:14;7.65;;;1.67;;
70414;SDS011;57837;52.064;113.478;2023-05-16T07:16:18;5.70;;;1.48;;
70414;SDS011;57837;52.064;113.478;2023-05-16T07:19:22;3.78;;;1.00;;
70414;SDS011;57837;52.064;113.478;2023-05-16T07:22:26;5.67;;;1.00;;
70414;SDS011;57837;52.064;113.478;2023-05-16T07:25:29;3.47;;;1.35;;
70414;SDS011;57837;52.064;113.478;2023-05-16T07:28:34;4.43;;;1.67;;
70414;SDS011;57837;52.064;113.478;2023-05-16T07:31:38;4.30;;;1.40;;
70414;SDS011;57837;52.064;113.478;2023-05-16T07:34:42;5.30;;;1.77;;
70414;SDS011;57837;52.064;113.478;2023-05-16T07:37:46;3.70;;;1.23;;
70414;SDS011;57837;52.064;113.478;2023-05-16T07:40:49;17.80;;;2.20;;
70414;SDS011;57837;52.064;113.478;2023-05-16T07:43:53;5.45;;;1.20;;
70414;SDS011;57837;52.064;113.478;2023-05-16T07:46:57;7.00;;;2.28;;
70414;SDS011;57837;52.064;113.478;2023-05-16T07:50:01;5.35;;;1.20;;
70414;SDS011;57837;52.064;113.478;2023-05-16T07:53:04;3.13;;;0.90;;
70414;SDS011;57837;52.064;113.478;2023-05-16T07:56:08;4.57;;;1.35;;
70414;SDS011;57837;52.064;113.478;2023-05-16T07:59:11;15.05;;;1.90;;
70414;SDS011;57837;52.064;113.478;2023-05-16T08:02:15;2.83;;;1.17;;
70414;SDS011;57837;52.064;113.478;2023-05-16T08:05:19;5.28;;;1.23;;
70414;SDS011;57837;52.064;113.478;2023-05-16T08:08:23;21.13;;;3.57;;
70414;SDS011;57837;52.064;113.478;2023-05-16T08:11:27;6.18;;;1.58;;
70414;SDS011;57837;52.064;113.478;2023-05-16T08:14:31;4.65;;;1.90;;
70414;SDS011;57837;52.064;113.478;2023-05-16T08:17:34;7.20;;;2.15;;
70414;SDS011;57837;52.064;113.478;2023-05-16T08:20:39;7.50;;;1.30;;
70414;SDS011;57837;52.064;113.478;2023-05-16T08:23:44;3.23;;;1.30;;
70414;SDS011;57837;52.064;113.478;2023-05-16T08:26:47;3.60;;;1.20;;
70414;SDS011;57837;52.064;113.478;2023-05-16T08:29:51;6.03;;;1.00;;
70414;SDS011;57837;52.064;113.478;2023-05-16T08:32:55;3.88;;;1.10;;
70414;SDS011;57837;52.064;113.478;2023-05-16T08:35:58;7.83;;;1.00;;
70414;SDS011;57837;52.064;113.478;2023-05-16T08:39:02;2.57;;;1.10;;
70414;SDS011;57837;52.064;113.478;2023-05-16T08:42:06;7.13;;;1.33;;
70414;SDS011;57837;52.064;113.478;2023-05-16T08:45:10;4.85;;;1.20;;
70414;SDS011;57837;52.064;113.478;2023-05-16T08:48:14;3.85;;;1.40;;
70414;SDS011;57837;52.064;113.478;2023-05-16T08:51:20;11.90;;;3.65;;
70414;SDS011;57837;52.064;113.478;2023-05-16T08:54:26;2.30;;;1.13;;
70414;SDS011;57837;52.064;113.478;2023-05-16T08:57:30;5.40;;;1.63;;
70414;SDS011;57837;52.064;113.478;2023-05-16T09:00:35;3.88;;;1.10;;
70414;SDS011;57837;52.064;113.478;2023-05-16T09:03:39;9.07;;;1.58;;
70414;SDS011;57837;52.064;113.478;2023-05-16T09:06:43;8.63;;;1.20;;
70414;SDS011;57837;52.064;113.478;2023-05-16T09:09:47;10.23;;;1.37;;
70414;SDS011;57837;52.064;113.478;2023-05-16T09:12:51;4.15;;;1.20;;
70414;SDS011;57837;52.064;113.478;2023-05-16T09:16:08;8.60;;;1.55;;
70414;SDS011;57837;52.064;113.478;2023-05-16T09:19:12;3.03;;;0.90;;
70414;SDS011;57837;52.064;113.478;2023-05-16T09:22:16;10.30;;;1.63;;
70414;SDS011;57837;52.064;113.478;2023-05-16T09:25:21;8.57;;;1.30;;
70414;SDS011;57837;52.064;113.478;2023-05-16T09:28:32;9.73;;;2.28;;
70414;SDS011;57837;52.064;113.478;2023-05-16T09:31:39;6.63;;;1.20;;
70414;SDS011;57837;52.064;113.478;2023-05-16T09:34:44;3.97;;;1.10;;
70414;SDS011;57837;52.064;113.478;2023-05-16T09:37:50;5.47;;;1.97;;
70414;SDS011;57837;52.064;113.478;2023-05-16T09:40:57;6.93;;;2.83;;
70414;SDS011;57837;52.064;113.478;2023-05-16T09:44:04;6.30;;;1.30;;
70414;SDS011;57837;52.064;113.478;2023-05-16T09:47:07;6.50;;;1.13;;
70414;SDS011;57837;52.064;113.478;2023-05-16T09:50:13;5.97;;;1.20;;
70414;SDS011;57837;52.064;113.478;2023-05-16T09:53:28;3.77;;;1.27;;
70414;SDS011;57837;52.064;113.478;2023-05-16T09:56:38;6.10;;;1.20;;
70414;SDS011;57837;52.064;113.478;2023-05-16T09:59:51;6.07;;;1.70;;
70414;SDS011;57837;52.064;113.478;2023-05-16T10:02:55;25.75;;;2.60;;
70414;SDS011;57837;52.064;113.478;2023-05-16T10:06:03;8.15;;;2.10;;
70414;SDS011;57837;52.064;113.478;2023-05-16T10:09:11;6.93;;;1.80;;
70414;SDS011;57837;52.064;113.478;2023-05-16T10:12:14;5.40;;;1.20;;
70414;SDS011;57837;52.064;113.478;2023-05-16T10:15:18;3.78;;;1.40;;
70414;SDS011;57837;52.064;113.478;2023-05-16T10:18:27;2.65;;;1.50;;
70414;SDS011;57837;52.064;113.478;2023-05-16T10:21:33;4.63;;;1.65;;
70414;SDS011;57837;52.064;113.478;2023-05-16T10:24:43;11.88;;;2.13;;
70414;SDS011;57837;52.064;113.478;2023-05-16T10:27:53;10.73;;;1.93;;
70414;SDS011;57837;52.064;113.478;2023-05-16T10:30:58;6.40;;;1.70;;
70414;SDS011;57837;52.064;113.478;2023-05-16T10:34:04;16.58;;;1.90;;
70414;SDS011;57837;52.064;113.478;2023-05-16T10:37:31;3.45;;;1.20;;
70414;SDS011;57837;52.064;113.478;2023-05-16T10:40:36;8.88;;;1.38;;
70414;SDS011;57837;52.064;113.478;2023-05-16T10:43:43;5.00;;;1.33;;
70414;SDS011;57837;52.064;113.478;2023-05-16T10:46:47;7.68;;;1.30;;
70414;SDS011;57837;52.064;113.478;2023-05-16T10:49:51;9.38;;;1.92;;
70414;SDS011;57837;52.064;113.478;2023-05-16T10:52:54;6.40;;;1.60;;
70414;SDS011;57837;52.064;113.478;2023-05-16T10:59:03;6.50;;;1.83;;
70414;SDS011;57837;52.064;113.478;2023-05-16T11:02:27;11.82;;;2.20;;
70414;SDS011;57837;52.064;113.478;2023-05-16T11:05:32;7.25;;;2.53;;
70414;SDS011;57837;52.064;113.478;2023-05-16T11:08:36;5.70;;;2.00;;
70414;SDS011;57837;52.064;113.478;2023-05-16T11:11:43;8.63;;;2.27;;
70414;SDS011;57837;52.064;113.478;2023-05-16T11:14:50;9.37;;;3.73;;
70414;SDS011;57837;52.064;113.478;2023-05-16T11:18:06;3.55;;;2.28;;
70414;SDS011;57837;52.064;113.478;2023-05-16T11:21:12;3.83;;;1.67;;
70414;SDS011;57837;52.064;113.478;2023-05-16T11:24:28;3.90;;;1.90;;
70414;SDS011;57837;52.064;113.478;2023-05-16T11:27:42;3.07;;;1.90;;
70414;SDS011;57837;52.064;113.478;2023-05-16T11:30:51;11.97;;;2.90;;
70414;SDS011;57837;52.064;113.478;2023-05-16T11:33:58;6.82;;;2.60;;
70414;SDS011;57837;52.064;113.478;2023-05-16T11:37:01;8.48;;;2.40;;
70414;SDS011;57837;52.064;113.478;2023-05-16T11:40:07;6.00;;;2.10;;
70414;SDS011;57837;52.064;113.478;2023-05-16T11:43:16;8.33;;;2.30;;
70414;SDS011;57837;52.064;113.478;2023-05-16T11:46:21;8.03;;;2.53;;
70414;SDS011;57837;52.064;113.478;2023-05-16T11:49:26;7.90;;;2.17;;
70414;SDS011;57837;52.064;113.478;2023-05-16T11:52:30;5.93;;;1.90;;
70414;SDS011;57837;52.064;113.478;2023-05-16T11:55:35;7.13;;;1.80;;
70414;SDS011;57837;52.064;113.478;2023-05-16T11:58:44;9.07;;;1.80;;
70414;SDS011;57837;52.064;113.478;2023-05-16T12:01:47;6.40;;;2.53;;
70414;SDS011;57837;52.064;113.478;2023-05-16T12:04:52;7.10;;;2.47;;
70414;SDS011;57837;52.064;113.478;2023-05-16T12:07:56;10.40;;;2.95;;
70414;SDS011;57837;52.064;113.478;2023-05-16T12:11:01;12.55;;;4.53;;
70414;SDS011;57837;52.064;113.478;2023-05-16T12:14:06;14.17;;;5.30;;
70414;SDS011;57837;52.064;113.478;2023-05-16T12:17:11;10.90;;;4.80;;
70414;SDS011;57837;52.064;113.478;2023-05-16T12:20:15;13.10;;;5.20;;
70414;SDS011;57837;52.064;113.478;2023-05-16T12:23:20;11.70;;;4.35;;
70414;SDS011;57837;52.064;113.478;2023-05-16T12:26:27;14.30;;;4.78;;
70414;SDS011;57837;52.064;113.478;2023-05-16T12:29:36;12.33;;;3.77;;
70414;SDS011;57837;52.064;113.478;2023-05-16T12:32:39;9.43;;;2.90;;
70414;SDS011;57837;52.064;113.478;2023-05-16T12:35:44;10.75;;;2.40;;
70414;SDS011;57837;52.064;113.478;2023-05-16T12:38:49;8.52;;;2.63;;
70414;SDS011;57837;52.064;113.478;2023-05-16T12:41:55;11.05;;;3.22;;
70414;SDS011;57837;52.064;113.478;2023-05-16T12:44:59;12.70;;;5.03;;
70414;SDS011;57837;52.064;113.478;2023-05-16T12:48:31;18.13;;;5.43;;
70414;SDS011;57837;52.064;113.478;2023-05-16T12:51:38;11.95;;;3.78;;
70414;SDS011;57837;52.064;113.478;2023-05-16T12:54:47;5.85;;;2.95;;
70414;SDS011;57837;52.064;113.478;2023-05-16T12:57:51;7.47;;;2.50;;
70414;SDS011;57837;52.064;113.478;2023-05-16T13:00:59;6.07;;;1.77;;
70414;SDS011;57837;52.064;113.478;2023-05-16T13:04:03;7.00;;;2.07;;
70414;SDS011;57837;52.064;113.478;2023-05-16T13:07:08;5.35;;;2.22;;
70414;SDS011;57837;52.064;113.478;2023-05-16T13:10:11;4.75;;;2.00;;
70414;SDS011;57837;52.064;113.478;2023-05-16T13:13:16;5.95;;;1.95;;
70414;SDS011;57837;52.064;113.478;2023-05-16T13:16:36;9.50;;;2.90;;
70414;SDS011;57837;52.064;113.478;2023-05-16T13:19:40;5.80;;;2.90;;
70414;SDS011;57837;52.064;113.478;2023-05-16T13:22:44;7.75;;;2.92;;
70414;SDS011;57837;52.064;113.478;2023-05-16T13:25:48;6.25;;;2.47;;
70414;SDS011;57837;52.064;113.478;2023-05-16T13:28:52;10.88;;;2.90;;
70414;SDS011;57837;52.064;113.478;2023-05-16T13:31:57;7.00;;;2.63;;
70414;SDS011;57837;52.064;113.478;2023-05-16T13:35:00;7.13;;;2.67;;
70414;SDS011;57837;52.064;113.478;2023-05-16T13:38:04;6.05;;;2.30;;
70414;SDS011;57837;52.064;113.478;2023-05-16T13:41:08;8.98;;;3.20;;
70414;SDS011;57837;52.064;113.478;2023-05-16T13:44:12;15.07;;;4.20;;
70414;SDS011;57837;52.064;113.478;2023-05-16T13:47:15;9.87;;;3.33;;
70414;SDS011;57837;52.064;113.478;2023-05-16T13:50:19;12.00;;;3.40;;
70414;SDS011;57837;52.064;113.478;2023-05-16T13:53:23;7.53;;;2.92;;
70414;SDS011;57837;52.064;113.478;2023-05-16T13:56:28;9.60;;;3.38;;
70414;SDS011;57837;52.064;113.478;2023-05-16T13:59:32;12.48;;;2.83;;
70414;SDS011;57837;52.064;113.478;2023-05-16T14:02:39;7.00;;;2.50;;
70414;SDS011;57837;52.064;113.478;2023-05-16T14:05:43;7.22;;;2.70;;
70414;SDS011;57837;52.064;113.478;2023-05-16T14:08:46;10.03;;;3.60;;
70414;SDS011;57837;52.064;113.478;2023-05-16T14:11:49;6.93;;;3.30;;
70414;SDS011;57837;52.064;113.478;2023-05-16T14:14:53;11.65;;;3.08;;
70414;SDS011;57837;52.064;113.478;2023-05-16T14:17:56;7.93;;;2.88;;
70414;SDS011;57837;52.064;113.478;2023-05-16T14:21:02;10.38;;;2.63;;
70414;SDS011;57837;52.064;113.478;2023-05-16T14:24:05;6.37;;;2.47;;
70414;SDS011;57837;52.064;113.478;2023-05-16T14:27:09;5.83;;;2.93;;
70414;SDS011;57837;52.064;113.478;2023-05-16T14:30:12;5.28;;;2.70;;
70414;SDS011;57837;52.064;113.478;2023-05-16T14:33:16;13.23;;;3.58;;
70414;SDS011;57837;52.064;113.478;2023-05-16T14:36:20;13.35;;;4.72;;
70414;SDS011;57837;52.064;113.478;2023-05-16T14:39:23;12.30;;;4.10;;
70414;SDS011;57837;52.064;113.478;2023-05-16T14:42:51;16.00;;;4.37;;
70414;SDS011;57837;52.064;113.478;2023-05-16T14:45:54;11.80;;;4.35;;
70414;SDS011;57837;52.064;113.478;2023-05-16T14:48:57;15.80;;;5.15;;
70414;SDS011;57837;52.064;113.478;2023-05-16T14:52:01;15.30;;;4.75;;
70414;SDS011;57837;52.064;113.478;2023-05-16T14:55:04;11.40;;;4.00;;
70414;SDS011;57837;52.064;113.478;2023-05-16T14:58:08;7.60;;;2.93;;
70414;SDS011;57837;52.064;113.478;2023-05-16T15:01:11;12.30;;;4.00;;
70414;SDS011;57837;52.064;113.478;2023-05-16T15:04:17;16.00;;;4.55;;
70414;SDS011;57837;52.064;113.478;2023-05-16T15:07:20;11.23;;;4.25;;
70414;SDS011;57837;52.064;113.478;2023-05-16T15:10:23;8.93;;;3.37;;
70414;SDS011;57837;52.064;113.478;2023-05-16T15:13:27;8.27;;;2.60;;
70414;SDS011;57837;52.064;113.478;2023-05-16T15:16:31;11.82;;;2.80;;
70414;SDS011;57837;52.064;113.478;2023-05-16T15:19:34;7.93;;;2.40;;
70414;SDS011;57837;52.064;113.478;2023-05-16T15:22:38;4.28;;;2.25;;
70414;SDS011;57837;52.064;113.478;2023-05-16T15:25:42;6.00;;;2.33;;
70414;SDS011;57837;52.064;113.478;2023-05-16T15:28:46;5.20;;;2.10;;
70414;SDS011;57837;52.064;113.478;2023-05-16T15:31:50;5.10;;;2.20;;
70414;SDS011;57837;52.064;113.478;2023-05-16T15:34:54;8.15;;;2.10;;
70414;SDS011;57837;52.064;113.478;2023-05-16T15:37:57;3.78;;;2.00;;
70414;SDS011;57837;52.064;113.478;2023-05-16T15:41:01;10.33;;;3.10;;
70414;SDS011;57837;52.064;113.478;2023-05-16T15:44:23;8.13;;;3.37;;
70414;SDS011;57837;52.064;113.478;2023-05-16T15:47:27;9.63;;;3.47;;
70414;SDS011;57837;52.064;113.478;2023-05-16T15:50:31;13.25;;;4.45;;
70414;SDS011;57837;52.064;113.478;2023-05-16T15:53:35;12.65;;;3.90;;
70414;SDS011;57837;52.064;113.478;2023-05-16T15:56:39;11.87;;;5.40;;
70414;SDS011;57837;52.064;113.478;2023-05-16T15:59:42;4.93;;;2.20;;
70414;SDS011;57837;52.064;113.478;2023-05-16T16:02:45;6.10;;;2.92;;
70414;SDS011;57837;52.064;113.478;2023-05-16T16:05:50;13.80;;;2.80;;
70414;SDS011;57837;52.064;113.478;2023-05-16T16:08:54;7.25;;;3.38;;
70414;SDS011;57837;52.064;113.478;2023-05-16T16:11:58;6.33;;;2.50;;
70414;SDS011;57837;52.064;113.478;2023-05-16T16:15:02;4.73;;;1.70;;
70414;SDS011;57837;52.064;113.478;2023-05-16T16:18:09;4.00;;;1.83;;
70414;SDS011;57837;52.064;113.478;2023-05-16T16:21:13;3.83;;;1.65;;
70414;SDS011;57837;52.064;113.478;2023-05-16T16:24:17;4.07;;;1.65;;
70414;SDS011;57837;52.064;113.478;2023-05-16T16:27:22;5.27;;;1.97;;
70414;SDS011;57837;52.064;113.478;2023-05-16T16:30:26;4.47;;;1.60;;
70414;SDS011;57837;52.064;113.478;2023-05-16T16:33:30;3.10;;;1.70;;
70414;SDS011;57837;52.064;113.478;2023-05-16T16:36:34;2.42;;;1.58;;
70414;SDS011;57837;52.064;113.478;2023-05-16T16:39:38;4.22;;;1.40;;
70414;SDS011;57837;52.064;113.478;2023-05-16T16:42:42;4.47;;;1.50;;
70414;SDS011;57837;52.064;113.478;2023-05-16T16:45:46;5.23;;;1.70;;
70414;SDS011;57837;52.064;113.478;2023-05-16T16:48:50;4.30;;;1.50;;
70414;SDS011;57837;52.064;113.478;2023-05-16T16:51:54;3.72;;;1.23;;
70414;SDS011;57837;52.064;113.478;2023-05-16T16:54:58;4.90;;;1.40;;
70414;SDS011;57837;52.064;113.478;2023-05-16T16:58:02;3.37;;;1.40;;
70414;SDS011;57837;52.064;113.478;2023-05-16T17:01:06;2.50;;;1.53;;
70414;SDS011;57837;52.064;113.478;2023-05-16T17:04:11;2.95;;;1.60;;
70414;SDS011;57837;52.064;113.478;2023-05-16T17:07:14;2.95;;;1.50;;
70414;SDS011;57837;52.064;113.478;2023-05-16T17:10:18;3.58;;;1.60;;
70414;SDS011;57837;52.064;113.478;2023-05-16T17:13:23;4.33;;;2.13;;
70414;SDS011;57837;52.064;113.478;2023-05-16T17:16:35;4.83;;;2.17;;
70414;SDS011;57837;52.064;113.478;2023-05-16T17:19:40;8.00;;;2.95;;
70414;SDS011;57837;52.064;113.478;2023-05-16T17:22:44;7.03;;;3.03;;
70414;SDS011;57837;52.064;113.478;2023-05-16T17:25:50;9.40;;;2.83;;
70414;SDS011;57837;52.064;113.478;2023-05-16T17:28:54;5.10;;;2.73;;
70414;SDS011;57837;52.064;113.478;2023-05-16T17:32:04;4.70;;;2.73;;
70414;SDS011;57837;52.064;113.478;2023-05-16T17:35:08;5.45;;;3.08;;
70414;SDS011;57837;52.064;113.478;2023-05-16T17:38:12;7.60;;;3.20;;
70414;SDS011;57837;52.064;113.478;2023-05-16T17:41:16;11.65;;;4.40;;
70414;SDS011;57837;52.064;113.478;2023-05-16T17:44:20;11.40;;;3.00;;
70414;SDS011;57837;52.064;113.478;2023-05-16T17:47:24;6.93;;;3.43;;
70414;SDS011;57837;52.064;113.478;2023-05-16T17:50:29;5.78;;;2.35;;
70414;SDS011;57837;52.064;113.478;2023-05-16T17:53:32;7.00;;;3.17;;
70414;SDS011;57837;52.064;113.478;2023-05-16T17:56:36;6.70;;;3.33;;
70414;SDS011;57837;52.064;113.478;2023-05-16T17:59:40;6.70;;;3.30;;
70414;SDS011;57837;52.064;113.478;2023-05-16T18:02:44;6.07;;;3.00;;
70414;SDS011;57837;52.064;113.478;2023-05-16T18:05:48;6.22;;;3.10;;
70414;SDS011;57837;52.064;113.478;2023-05-16T18:08:53;6.57;;;2.53;;
70414;SDS011;57837;52.064;113.478;2023-05-16T18:11:56;6.70;;;3.47;;
70414;SDS011;57837;52.064;113.478;2023-05-16T18:15:01;9.27;;;4.33;;